Time;durP1;ratioP1;P1;durP2;ratioP2;P2;SDS_P1;SDS_P2;PMS_P1;PMS_P2;Temp;Humidity;BMP_temperature;BMP_pressure;BME280_temperature;BME280_humidity;BME280_pressure;Samples;Min_cycle;Max_cycle;Signal;HPM_P1;HPM_P2
2021/03/25 00:00:46;;;;;;;9.03;5.78;;;;;;;6.06;60.05;100490.88;1735885;82;21160;-63
2021/03/25 00:03:17;;;;;;;10.80;5.72;;;;;;;6.10;60.01;100485.70;1746981;81;21649;-55
2021/03/25 00:05:48;;;;;;;8.95;6.15;;;;;;;6.12;59.85;100487.02;1743176;81;21128;-53
2021/03/25 00:08:19;;;;;;;8.40;5.33;;;;;;;6.13;59.80;100486.59;1748404;82;21630;-54
2021/03/25 00:10:46;;;;;;;;;;;;;;;6.13;59.81;100481.37;1750015;81;21172;-54
2021/03/25 00:13:14;;;;;;;8.18;5.65;;;;;;;6.10;59.74;100473.95;1741725;82;20198;-64
2021/03/25 00:15:42;;;;;;;9.60;5.28;;;;;;;6.23;59.42;100474.02;1718380;82;21354;-64
2021/03/25 00:18:12;;;;;;;9.15;5.33;;;;;;;6.15;59.54;100473.97;1718547;83;21136;-64
2021/03/25 00:20:42;;;;;;;8.13;5.12;;;;;;;6.18;59.37;100469.22;1747250;82;21147;-54
2021/03/25 00:23:11;;;;;;;9.65;5.55;;;;;;;6.12;59.46;100462.63;1731495;82;21159;-54
2021/03/25 00:25:40;;;;;;;8.75;5.85;;;;;;;6.13;59.44;100469.16;1718339;82;21174;-54
2021/03/25 00:28:10;;;;;;;8.20;5.35;;;;;;;6.12;59.46;100466.11;1738703;81;21154;-54
2021/03/25 00:30:39;;;;;;;6.62;4.25;;;;;;;6.13;59.52;100467.00;1695184;83;21668;-64
2021/03/25 00:33:10;;;;;;;8.28;5.00;;;;;;;6.10;59.26;100465.22;1702444;84;21309;-63
2021/03/25 00:35:40;;;;;;;7.60;5.10;;;;;;;6.09;59.28;100461.75;1707440;83;21182;-54
2021/03/25 00:38:09;;;;;;;7.08;4.78;;;;;;;6.14;59.22;100465.69;1698421;84;21683;-63
2021/03/25 00:40:40;;;;;;;9.20;4.80;;;;;;;6.07;59.26;100463.47;1704330;83;21327;-54
2021/03/25 00:43:08;;;;;;;8.28;4.83;;;;;;;6.05;59.20;100461.28;1707343;84;21731;-54
2021/03/25 00:45:40;;;;;;;7.05;4.15;;;;;;;6.27;58.78;100458.80;1707517;84;21205;-64
2021/03/25 00:48:10;;;;;;;9.45;4.75;;;;;;;6.22;58.80;100460.50;1694375;84;21180;-54
2021/03/25 00:50:43;;;;;;;8.10;4.58;;;;;;;6.13;59.11;100463.08;1699735;82;21198;-54
2021/03/25 00:53:14;;;;;;;7.75;4.90;;;;;;;6.14;59.02;100460.91;1690597;85;21178;-54
2021/03/25 00:55:42;;;;;;;6.87;4.83;;;;;;;6.15;59.15;100469.19;1701507;83;21170;-54
2021/03/25 00:58:10;;;;;;;8.00;4.67;;;;;;;6.14;59.22;100461.77;1712021;83;21134;-54
2021/03/25 01:00:41;;;;;;;7.65;4.95;;;;;;;6.20;59.05;100463.53;1709258;83;21518;-53
2021/03/25 01:03:09;;;;;;;12.58;5.37;;;;;;;6.18;59.08;100457.45;1725614;83;21164;-63
2021/03/25 01:05:38;;;;;;;7.58;4.58;;;;;;;6.17;59.00;100453.95;1724990;82;21223;-54
2021/03/25 01:08:07;;;;;;;7.00;4.78;;;;;;;6.20;58.98;100455.69;1697984;83;21139;-54
2021/03/25 01:10:47;;;;;;;8.35;4.55;;;;;;;6.21;58.89;100452.22;1725382;82;21213;-53
2021/03/25 01:13:27;;;;;;;7.37;4.90;;;;;;;6.21;58.73;100446.58;1722978;83;21586;-54
2021/03/25 01:15:58;;;;;;;9.98;5.00;;;;;;;6.21;58.75;100446.58;1701096;83;21142;-64
2021/03/25 01:18:28;;;;;;;7.40;4.78;;;;;;;6.18;58.64;100441.33;1702205;83;21175;-63
2021/03/25 01:20:57;;;;;;;8.18;4.75;;;;;;;6.15;58.44;100438.69;1696318;83;21170;-53
2021/03/25 01:23:25;;;;;;;7.78;4.90;;;;;;;6.10;58.33;100433.44;1711073;83;21150;-54
2021/03/25 01:25:55;;;;;;;8.40;4.83;;;;;;;6.25;57.90;100434.39;1722105;82;21689;-63
2021/03/25 01:28:24;;;;;;;7.00;4.58;;;;;;;6.18;57.90;100429.56;1707585;83;21342;-54
2021/03/25 01:30:53;;;;;;;7.20;4.62;;;;;;;5.95;58.36;100431.56;1710718;82;21337;-54
2021/03/25 01:33:21;;;;;;;8.73;4.85;;;;;;;5.89;58.30;100438.46;1711374;84;21190;-63
2021/03/25 01:35:49;;;;;;;7.85;4.95;;;;;;;5.85;58.29;100439.30;1753844;80;21158;-63
2021/03/25 01:38:21;;;;;;;7.50;4.85;;;;;;;5.95;57.71;100436.80;1755996;82;21174;-54
2021/03/25 01:40:54;;;;;;;;;;;;;;;5.85;57.93;100439.30;1753868;80;21612;-64
2021/03/25 01:43:37;;;;;;;7.58;4.97;;;;;;;5.81;57.91;100427.96;1726083;83;20162;-63
2021/03/25 01:46:34;;;;;;;7.92;5.03;;;;;;;5.74;57.81;100428.32;1738744;82;21541;-54
2021/03/25 01:49:09;;;;;;;7.87;5.15;;;;;;;5.73;57.61;100423.09;1738217;82;21159;-62
2021/03/25 01:51:54;;;;;;;8.38;5.22;;;;;;;5.66;57.65;100423.05;1732228;81;21285;-53
2021/03/25 01:55:14;;;;;;;8.05;5.25;;;;;;;5.64;57.64;100420.84;1739820;81;21130;-63
2021/03/25 01:57:55;;;;;;;8.25;4.80;;;;;;;5.59;57.51;100417.77;1756212;81;21120;-63
2021/03/25 02:00:38;;;;;;;7.40;4.67;;;;;;;5.60;57.59;100413.84;1755782;80;21216;-63
2021/03/25 02:03:36;;;;;;;7.17;4.83;;;;;;;5.57;57.64;100414.27;1744096;81;21111;-52
2021/03/25 02:06:48;;;;;;;7.40;4.83;;;;;;;5.57;57.71;100408.59;1750022;82;21200;-53
2021/03/25 02:09:38;;;;;;;9.65;5.37;;;;;;;5.50;57.61;100406.82;1755506;82;21068;-53
2021/03/25 02:12:56;;;;;;;8.75;5.17;;;;;;;5.49;57.36;100411.59;1817638;77;22174;-51
2021/03/25 02:15:49;;;;;;;8.13;5.20;;;;;;;5.52;57.37;100408.98;1773872;80;21610;-53
2021/03/25 02:19:09;;;;;;;7.22;4.53;;;;;;;5.49;57.26;100406.37;1763432;81;21142;-61
2021/03/25 02:21:54;;;;;;;7.25;4.87;;;;;;;5.51;57.26;100411.18;1760983;81;21148;-61
2021/03/25 02:24:50;;;;;;;6.87;4.80;;;;;;;5.46;57.27;100406.34;1761057;81;21142;-62
2021/03/25 02:27:38;;;;;;;7.33;4.80;;;;;;;5.47;57.12;100412.02;1727042;83;21179;-62
2021/03/25 02:30:25;;;;;;;8.10;4.83;;;;;;;5.47;57.07;100414.17;1714141;83;21301;-63
2021/03/25 02:33:01;;;;;;;9.50;5.22;;;;;;;5.47;56.96;100403.73;1829115;77;22610;-52
2021/03/25 02:35:42;;;;;;;7.80;4.80;;;;;;;5.41;56.93;100401.51;1778829;80;21138;-52
2021/03/25 02:38:33;;;;;;;7.95;4.97;;;;;;;5.43;56.96;100403.25;1762147;81;21317;-53
2021/03/25 02:41:06;;;;;;;8.23;5.17;;;;;;;5.42;56.79;100409.78;1762171;81;21596;-63
2021/03/25 02:43:57;;;;;;;7.97;4.70;;;;;;;5.34;56.86;100410.58;1724120;82;21146;-53
2021/03/25 02:46:40;;;;;;;8.05;4.87;;;;;;;5.28;56.82;100403.13;1759415;81;21205;-54
2021/03/25 02:49:10;;;;;;;7.95;4.85;;;;;;;5.35;56.91;100404.91;1742489;81;21126;-54
2021/03/25 02:51:44;;;;;;;8.95;4.97;;;;;;;5.48;56.21;100397.66;1760939;81;21162;-55
2021/03/25 02:54:13;;;;;;;8.25;4.78;;;;;;;5.28;56.78;100400.08;1751444;81;21135;-54
2021/03/25 02:56:55;;;;;;;8.25;5.45;;;;;;;5.32;56.75;100405.77;1734667;81;21203;-63
2021/03/25 02:59:32;;;;;;;7.05;4.70;;;;;;;5.34;56.64;100408.38;1761880;81;21115;-52
2021/03/25 03:02:31;;;;;;;7.20;4.37;;;;;;;5.51;56.13;100412.48;1760739;81;21606;-53
2021/03/25 03:05:07;;;;;;;6.42;4.28;;;;;;;5.34;56.61;100410.58;1742897;81;21654;-62
2021/03/25 03:07:47;;;;;;;6.25;4.05;;;;;;;5.36;56.57;100411.89;1761259;81;21151;-62
2021/03/25 03:10:36;;;;;;;7.12;4.65;;;;;;;5.39;56.33;100406.70;1823572;77;22641;-52
2021/03/25 03:13:04;;;;;;;7.15;4.35;;;;;;;5.27;56.34;100413.13;1781261;80;21146;-54
2021/03/25 03:15:40;;;;;;;7.20;4.30;;;;;;;5.34;56.45;100411.00;1786800;80;21132;-53
2021/03/25 03:18:23;;;;;;;7.67;4.75;;;;;;;5.34;56.36;100407.97;1791592;80;21110;-62
2021/03/25 03:21:00;;;;;;;6.08;4.10;;;;;;;5.39;56.36;100409.75;1790286;80;21695;-62
2021/03/25 03:23:41;;;;;;;6.12;4.20;;;;;;;5.44;56.21;100404.15;1834664;77;22604;-52
2021/03/25 03:26:15;;;;;;;7.90;4.62;;;;;;;5.39;56.06;100410.61;1752540;80;21282;-52
2021/03/25 03:28:46;;;;;;;7.80;4.70;;;;;;;5.41;56.15;100408.03;1761836;81;21139;-53
2021/03/25 03:31:21;;;;;;;8.55;4.62;;;;;;;5.37;56.02;100401.89;1760226;80;21289;-53
2021/03/25 03:33:57;;;;;;;8.18;4.70;;;;;;;5.46;55.96;100408.51;1755212;81;21294;-63
2021/03/25 03:36:25;;;;;;;6.95;4.45;;;;;;;5.47;55.79;100407.65;1741860;81;21288;-62
2021/03/25 03:39:07;;;;;;;6.67;4.40;;;;;;;5.43;55.76;100404.56;1743329;81;21530;-62
2021/03/25 03:41:53;;;;;;;8.20;4.58;;;;;;;5.47;55.86;100406.79;1742791;81;21566;-53
2021/03/25 03:44:26;;;;;;;8.65;4.85;;;;;;;5.48;55.96;100406.78;1743762;80;21288;-52
2021/03/25 03:46:56;;;;;;;6.62;4.03;;;;;;;5.47;55.88;100412.02;1762337;81;21198;-60
2021/03/25 03:50:02;;;;;;;7.83;4.67;;;;;;;5.46;55.89;100412.42;1760951;80;21147;-61
2021/03/25 03:52:36;;;;;;;8.03;4.70;;;;;;;5.43;55.90;100411.53;1749870;80;21150;-53
2021/03/25 03:55:07;;;;;;;6.72;4.30;;;;;;;5.39;55.88;100408.00;1739460;81;21174;-55
2021/03/25 03:57:50;;;;;;;5.75;3.80;;;;;;;5.44;55.96;100412.84;1742091;81;21142;-62
2021/03/25 04:00:33;;;;;;;7.83;5.03;;;;;;;5.41;55.89;100415.86;1760121;80;21353;-55
2021/03/25 04:03:30;;;;;;;6.30;4.42;;;;;;;5.39;56.05;100414.53;1698795;81;21182;-55
2021/03/25 04:06:41;;;;;;;7.15;4.40;;;;;;;5.33;55.91;100414.05;1761736;81;21126;-61
2021/03/25 04:18:34;;;;;;;9.23;4.33;;;;;;;5.47;56.08;100410.70;1830062;77;22189;-61
2021/03/25 04:21:11;;;;;;;7.65;4.75;;;;;;;5.50;56.41;100412.90;1688595;81;21166;-62
2021/03/25 04:23:41;;;;;;;11.57;6.12;;;;;;;5.55;56.10;100416.84;1751115;81;21272;-62
2021/03/25 04:26:36;;;;;;;11.15;5.08;;;;;;;5.52;56.16;100407.67;1749274;81;21285;-54
2021/03/25 04:29:15;;;;;;;12.80;5.30;;;;;;;5.44;55.90;100410.23;1739418;81;21107;-53
2021/03/25 04:31:44;;;;;;;8.95;4.53;;;;;;;5.55;56.10;100410.77;1729209;82;21621;-54
2021/03/25 04:34:13;;;;;;;11.68;5.50;;;;;;;5.54;56.15;100414.23;1760357;80;21146;-64
2021/03/25 04:36:42;;;;;;;10.65;5.05;;;;;;;5.56;56.07;100412.52;1761259;81;21168;-63
2021/03/25 04:39:12;;;;;;;8.85;5.17;;;;;;;5.64;56.30;100414.77;1737055;82;21281;-63
2021/03/25 04:41:41;;;;;;;8.83;4.85;;;;;;;5.64;56.02;100422.16;1747747;81;21188;-53
2021/03/25 04:44:41;;;;;;;11.22;5.72;;;;;;;5.64;55.94;100410.41;1750231;81;21278;-63
2021/03/25 04:47:26;;;;;;;11.40;5.80;;;;;;;5.57;55.47;100412.95;1772171;80;21091;-63
2021/03/25 04:50:18;;;;;;;10.13;5.20;;;;;;;5.60;55.96;100411.23;1758312;81;21180;-62
2021/03/25 04:52:46;;;;;;;8.20;4.78;;;;;;;5.55;55.67;100417.29;1749505;81;21593;-60
2021/03/25 04:55:21;;;;;;;9.03;6.03;;;;;;;5.56;55.87;100408.15;1743912;82;21170;-54
2021/03/25 04:57:59;;;;;;;7.67;5.08;;;;;;;5.59;55.77;100416.02;1743102;81;21170;-53
2021/03/25 05:00:32;;;;;;;10.18;5.83;;;;;;;5.62;55.91;100410.81;1738899;81;21174;-54
2021/03/25 05:03:18;;;;;;;12.47;7.10;;;;;;;5.66;55.94;100411.30;1745073;81;21170;-53
2021/03/25 05:05:47;;;;;;;9.98;5.95;;;;;;;5.72;55.98;100421.34;1751239;80;21322;-53
2021/03/25 05:08:19;;;;;;;10.53;5.78;;;;;;;5.74;55.85;100418.32;1764617;80;21139;-52
2021/03/25 05:11:10;;;;;;;8.55;5.58;;;;;;;5.70;55.50;100421.77;1724902;81;21218;-53
2021/03/25 05:13:42;;;;;;;8.13;4.90;;;;;;;5.66;56.12;100427.41;1731846;81;21167;-53
2021/03/25 05:16:16;;;;;;;7.55;4.90;;;;;;;5.65;56.27;100430.88;1766584;81;21598;-53
2021/03/25 05:19:09;;;;;;;8.00;4.95;;;;;;;5.66;56.44;100436.09;1682928;83;21162;-54
2021/03/25 05:22:24;;;;;;;10.30;5.95;;;;;;;5.59;56.80;100438.66;1784888;80;21162;-53
2021/03/25 05:25:18;;;;;;;7.83;4.95;;;;;;;5.60;56.94;100439.95;1771254;80;21149;-52
2021/03/25 05:27:54;;;;;;;11.10;6.10;;;;;;;5.60;57.23;100441.71;1782617;80;21142;-53
2021/03/25 05:30:28;;;;;;;8.33;5.15;;;;;;;5.61;57.26;100451.30;1771549;80;21279;-53
2021/03/25 05:33:05;;;;;;;9.98;5.58;;;;;;;5.55;57.57;100444.70;1780669;80;21549;-54
2021/03/25 05:35:40;;;;;;;12.75;5.80;;;;;;;5.57;57.76;100452.98;1771605;80;21569;-52
2021/03/25 05:38:08;;;;;;;9.35;5.47;;;;;;;5.60;58.05;100455.62;1768652;80;21163;-53
2021/03/25 05:40:52;;;;;;;12.85;5.83;;;;;;;5.58;58.19;100455.18;1753827;79;21166;-53
2021/03/25 05:44:01;;;;;;;9.73;5.50;;;;;;;5.56;58.41;100452.53;1781779;80;21574;-53
2021/03/25 05:46:38;;;;;;;7.97;4.95;;;;;;;5.50;58.93;100452.51;1784415;80;21137;-54
2021/03/25 05:49:33;;;;;;;8.13;4.92;;;;;;;5.46;59.34;100458.55;1753035;82;21195;-55
2021/03/25 05:52:19;;;;;;;9.58;5.40;;;;;;;5.43;59.41;100459.83;1772564;80;21132;-55
2021/03/25 05:55:18;;;;;;;11.12;6.00;;;;;;;5.36;59.53;100461.06;1757467;80;21159;-68
2021/03/25 05:58:16;;;;;;;10.32;6.30;;;;;;;5.32;59.57;100457.08;1769842;80;21900;-55
2021/03/25 06:01:04;;;;;;;12.68;6.30;;;;;;;5.26;59.62;100460.52;1771546;80;21556;-55
2021/03/25 06:03:32;;;;;;;8.73;5.75;;;;;;;5.22;59.63;100467.86;1744963;80;21127;-55
2021/03/25 06:06:01;;;;;;;11.55;6.10;;;;;;;5.15;59.83;100466.93;1768243;80;21172;-66
2021/03/25 06:08:57;;;;;;;9.38;5.42;;;;;;;5.16;59.78;100469.98;1775606;80;21078;-66
2021/03/25 06:11:44;;;;;;;9.58;5.78;;;;;;;5.22;59.73;100463.95;1805056;77;22610;-64
2021/03/25 06:14:50;;;;;;;10.45;5.85;;;;;;;5.13;59.94;100467.75;1761720;80;21151;-54
2021/03/25 06:17:58;;;;;;;13.32;5.97;;;;;;;5.10;59.93;100463.39;1743054;80;21146;-54
2021/03/25 06:20:54;;;;;;;9.48;6.05;;;;;;;5.16;59.99;100466.07;1759730;81;21702;-55
2021/03/25 06:23:50;;;;;;;9.83;6.47;;;;;;;5.18;59.94;100469.98;1759593;81;21127;-54
2021/03/25 06:26:47;;;;;;;10.70;6.70;;;;;;;5.13;60.08;100478.19;1759538;81;21281;-54
2021/03/25 06:29:23;;;;;;;12.65;7.65;;;;;;;5.07;60.31;100473.78;1761271;81;21091;-54
2021/03/25 06:32:11;;;;;;;10.78;7.00;;;;;;;5.09;60.25;100469.47;1761772;81;21281;-55
2021/03/25 06:34:58;;;;;;;12.78;7.08;;;;;;;5.11;60.38;100472.08;1720254;83;21660;-55
2021/03/25 06:37:34;;;;;;;11.00;6.67;;;;;;;5.15;60.34;100472.15;1700081;84;21560;-54
2021/03/25 06:40:21;;;;;;;11.33;6.72;;;;;;;5.19;60.36;100470.02;1719600;83;21306;-66
2021/03/25 06:43:02;;;;;;;10.25;6.78;;;;;;;5.15;60.40;100473.45;1700396;83;21178;-65
2021/03/25 06:45:34;;;;;;;9.68;6.58;;;;;;;5.14;60.47;100480.83;1713544;82;21306;-66
2021/03/25 06:48:13;;;;;;;14.30;6.42;;;;;;;5.20;60.48;100483.93;1718904;83;21560;-66
2021/03/25 06:50:50;;;;;;;10.32;6.92;;;;;;;5.23;60.46;100480.05;1690770;83;21186;-66
2021/03/25 06:53:31;;;;;;;17.25;11.68;;;;;;;5.27;60.40;100479.67;1709519;83;21152;-67
2021/03/25 06:56:08;;;;;;;14.75;9.40;;;;;;;5.36;60.31;100484.97;1717600;83;21171;-67
2021/03/25 06:58:54;;;;;;;10.32;7.25;;;;;;;5.42;60.11;100479.82;1682691;84;21155;-66
2021/03/25 07:01:43;;;;;;;10.48;5.92;;;;;;;5.45;60.15;100478.55;1707553;83;21723;-67
2021/03/25 07:04:24;;;;;;;10.03;5.92;;;;;;;5.39;60.24;100482.84;1712415;83;21112;-66
2021/03/25 07:06:55;;;;;;;10.53;6.35;;;;;;;5.39;60.15;100483.70;1719682;83;21657;-67
2021/03/25 07:09:28;;;;;;;11.18;6.47;;;;;;;5.41;60.18;100487.20;1711441;82;21178;-66
2021/03/25 07:11:59;;;;;;;9.85;6.50;;;;;;;5.44;60.29;100485.94;1704920;84;21608;-66
2021/03/25 07:14:39;;;;;;;10.18;6.42;;;;;;;5.36;60.56;100487.17;1748760;82;21143;-66
2021/03/25 07:17:13;;;;;;;14.33;9.35;;;;;;;5.48;60.54;100486.86;1737631;82;21131;-66
2021/03/25 07:19:46;;;;;;;39.03;33.28;;;;;;;5.59;60.58;100485.66;1748701;81;21135;-67
2021/03/25 07:22:23;;;;;;;25.10;19.67;;;;;;;5.66;60.67;100486.16;1748193;81;21101;-67
2021/03/25 07:24:53;;;;;;;16.00;13.45;;;;;;;5.71;60.46;100479.25;1748018;82;21171;-66
2021/03/25 07:27:28;;;;;;;15.30;13.13;;;;;;;5.74;60.50;100481.00;1747399;82;21550;-66
2021/03/25 07:30:04;;;;;;;13.03;9.83;;;;;;;5.70;60.14;100488.36;1747763;81;21123;-67
2021/03/25 07:32:51;;;;;;;16.48;12.30;;;;;;;5.71;60.49;100484.89;1748308;82;21515;-66
2021/03/25 07:35:39;;;;;;;13.30;9.23;;;;;;;5.79;60.42;100484.09;1741976;81;21140;-66
2021/03/25 07:38:32;;;;;;;16.73;13.43;;;;;;;5.78;60.38;100493.23;1748140;82;21151;-66
2021/03/25 07:41:14;;;;;;;12.20;9.75;;;;;;;5.84;60.28;100488.07;1747993;82;21575;-65
2021/03/25 07:44:04;;;;;;;12.43;8.15;;;;;;;5.87;60.09;100489.81;1744616;82;21479;-66
2021/03/25 07:46:46;;;;;;;15.35;10.95;;;;;;;5.88;60.00;100486.34;1735482;82;21156;-65
2021/03/25 07:49:21;;;;;;;23.75;15.13;;;;;;;5.91;60.11;100486.38;1748335;82;21136;-64
2021/03/25 07:51:57;;;;;;;18.35;12.82;;;;;;;5.90;60.22;100481.59;1748072;81;21124;-66
2021/03/25 07:54:35;;;;;;;23.98;15.72;;;;;;;5.93;60.39;100485.95;1742311;82;21147;-66
2021/03/25 07:57:15;;;;;;;31.25;20.75;;;;;;;5.98;60.01;100489.91;1748358;81;21100;-64
2021/03/25 07:59:56;;;;;;;29.90;18.17;;;;;;;5.98;59.90;100488.18;1748083;81;21175;-65
2021/03/25 08:02:36;;;;;;;32.05;17.70;;;;;;;6.03;60.08;100489.13;1737385;81;21152;-65
2021/03/25 08:05:30;;;;;;;13.78;9.28;;;;;;;6.06;59.84;100486.95;1681506;85;21742;-66
2021/03/25 08:08:03;;;;;;;16.10;9.98;;;;;;;6.08;59.75;100486.55;1734085;82;21155;-66
2021/03/25 08:10:41;;;;;;;13.30;8.85;;;;;;;6.09;59.65;100483.06;1751532;81;21147;-66
2021/03/25 08:13:26;;;;;;;15.40;10.65;;;;;;;6.11;59.77;100487.87;1761115;81;21162;-66
2021/03/25 08:16:09;;;;;;;22.00;17.92;;;;;;;6.15;59.76;100483.56;1759954;81;21186;-65
2021/03/25 08:19:02;;;;;;;36.15;29.25;;;;;;;6.17;59.73;100488.37;1761438;81;21123;-65
2021/03/25 08:21:54;;;;;;;36.10;30.15;;;;;;;6.18;60.25;100490.12;1737613;80;21563;-66
2021/03/25 08:24:56;;;;;;;37.35;28.52;;;;;;;6.24;59.67;100486.22;1758921;81;21375;-65
2021/03/25 08:28:04;;;;;;;27.50;22.93;;;;;;;6.33;59.74;100489.36;1761224;81;21581;-68
2021/03/25 08:30:50;;;;;;;28.05;23.22;;;;;;;6.37;59.95;100495.91;1758017;81;21215;-67
2021/03/25 08:33:33;;;;;;;22.22;17.12;;;;;;;6.46;59.70;100491.16;1725570;83;21550;-68
2021/03/25 08:36:40;;;;;;;22.93;18.48;;;;;;;6.53;59.79;100492.09;1725616;82;21154;-65
2021/03/25 08:39:27;;;;;;;28.45;24.15;;;;;;;6.60;59.61;100489.08;1701164;83;21594;-66
2021/03/25 08:42:18;;;;;;;41.05;30.82;;;;;;;6.56;59.63;100489.50;1707542;83;21148;-66
2021/03/25 08:45:24;;;;;;;34.78;28.35;;;;;;;6.59;59.73;100489.94;1726089;83;21214;-66
2021/03/25 08:48:03;;;;;;;24.52;19.55;;;;;;;6.59;59.91;100485.60;1721041;83;21597;-64
2021/03/25 08:51:11;;;;;;;41.25;31.80;;;;;;;6.55;59.68;100493.84;1725190;82;21159;-65
2021/03/25 08:54:10;;;;;;;255.32;168.72;;;;;;;6.59;59.94;100497.78;1725463;83;21166;-64
2021/03/25 08:56:50;;;;;;;202.70;127.27;;;;;;;6.82;60.02;100499.22;1721434;83;21170;-66
2021/03/25 08:59:31;;;;;;;106.92;69.85;;;;;;;6.80;59.29;100495.30;1725718;83;21555;-65
2021/03/25 09:02:32;;;;;;;102.78;64.65;;;;;;;6.69;58.94;100514.84;1732739;82;21603;-65
2021/03/25 09:05:31;;;;;;;68.65;48.25;;;;;;;6.61;59.09;100515.25;1724681;83;21198;-65
2021/03/25 09:08:00;;;;;;;45.70;35.83;;;;;;;6.51;58.97;100513.44;1725924;83;21702;-64
2021/03/25 09:10:43;;;;;;;82.02;62.73;;;;;;;6.45;58.87;100518.63;1722887;83;21201;-64
2021/03/25 09:13:24;;;;;;;50.65;42.17;;;;;;;6.47;59.20;100512.97;1711815;84;21140;-65
2021/03/25 09:15:56;;;;;;;34.75;29.82;;;;;;;6.48;59.14;100509.49;1725061;81;21166;-65
2021/03/25 09:18:28;;;;;;;35.13;26.82;;;;;;;6.41;59.01;100519.02;1738483;82;21273;-64
2021/03/25 09:21:00;;;;;;;30.40;24.23;;;;;;;6.42;59.10;100510.31;1755830;80;21139;-65
2021/03/25 09:23:35;;;;;;;24.52;20.52;;;;;;;6.42;59.39;100511.61;1755238;81;21131;-65
2021/03/25 09:26:15;;;;;;;22.67;19.65;;;;;;;6.48;59.57;100510.80;1726387;82;21547;-66
2021/03/25 09:28:59;;;;;;;25.40;22.65;;;;;;;6.42;59.14;100510.75;1729590;82;21135;-65
2021/03/25 09:31:57;;;;;;;20.40;18.20;;;;;;;6.42;59.10;100510.31;1745912;81;21142;-63
2021/03/25 09:34:44;;;;;;;17.15;13.95;;;;;;;6.23;59.22;100507.58;1722920;82;21142;-65
2021/03/25 09:37:23;;;;;;;20.62;17.10;;;;;;;6.28;59.59;100508.91;1719332;83;21601;-64
2021/03/25 09:40:29;;;;;;;17.75;15.10;;;;;;;6.41;60.02;100509.86;1754469;82;21131;-64
2021/03/25 09:43:32;;;;;;;23.47;20.48;;;;;;;6.35;60.35;100510.70;1756044;82;21151;-65
2021/03/25 09:46:31;;;;;;;28.15;23.57;;;;;;;6.57;59.89;100503.44;1744331;81;21595;-64
2021/03/25 09:49:27;;;;;;;29.42;24.37;;;;;;;6.65;60.02;100506.53;1743100;82;21518;-64
2021/03/25 09:52:19;;;;;;;22.37;18.30;;;;;;;6.78;59.75;100500.96;1756191;82;21768;-65
2021/03/25 09:54:58;;;;;;;19.85;15.18;;;;;;;6.87;59.46;100501.84;1752392;82;21567;-64
2021/03/25 09:57:36;;;;;;;18.07;15.43;;;;;;;6.95;59.65;100498.84;1755916;82;21581;-64
2021/03/25 10:00:32;;;;;;;12.10;10.75;;;;;;;7.04;60.01;100506.73;1756110;80;21171;-65
2021/03/25 10:03:02;;;;;;;24.95;20.57;;;;;;;7.17;59.86;100509.41;1755796;81;21170;-65
2021/03/25 10:05:34;;;;;;;;;;;;;;;7.25;60.08;100509.02;1727187;82;21148;-65
2021/03/25 10:08:19;;;;;;;19.07;12.93;;;;;;;7.34;59.16;100505.55;1724711;83;20162;-65
2021/03/25 10:10:55;;;;;;;16.00;13.58;;;;;;;7.26;60.00;100512.08;1738994;81;21554;-64
2021/03/25 10:13:36;;;;;;;10.68;8.65;;;;;;;7.33;59.83;100508.58;1759942;81;21099;-66
2021/03/25 10:16:36;;;;;;;19.37;13.45;;;;;;;7.28;59.32;100500.72;1697123;83;21634;-65
2021/03/25 10:19:08;;;;;;;28.05;20.12;;;;;;;7.28;59.01;100514.27;1725315;83;21107;-66
2021/03/25 10:22:00;;;;;;;36.17;24.07;;;;;;;7.21;58.99;100505.49;1680228;84;21197;-64
2021/03/25 10:24:35;;;;;;;29.77;20.00;;;;;;;7.12;59.14;100511.58;1680661;85;21587;-65
2021/03/25 10:27:37;;;;;;;33.00;21.02;;;;;;;7.10;59.42;100512.00;1716678;83;21171;-63
2021/03/25 10:30:22;;;;;;;21.80;15.35;;;;;;;7.14;59.66;100522.04;1721593;82;21139;-65
2021/03/25 10:32:50;;;;;;;12.82;9.35;;;;;;;7.21;59.51;100519.03;1711695;83;21642;-65
2021/03/25 10:35:23;;;;;;;13.55;10.28;;;;;;;7.23;59.64;100516.84;1725286;82;21162;-65
2021/03/25 10:37:54;;;;;;;11.05;8.23;;;;;;;7.30;60.24;100517.73;1725271;83;21138;-65
2021/03/25 10:40:27;;;;;;;11.63;9.27;;;;;;;7.37;60.06;100507.72;1714583;83;21625;-64
2021/03/25 10:43:09;;;;;;;11.45;9.35;;;;;;;7.34;59.93;100501.61;1696418;84;21617;-65
2021/03/25 10:45:52;;;;;;;13.10;9.85;;;;;;;7.31;59.01;100502.91;1716672;82;21217;-66
2021/03/25 10:48:42;;;;;;;17.42;11.30;;;;;;;7.23;59.33;100509.44;1725453;83;21154;-65
2021/03/25 10:51:16;;;;;;;22.45;13.38;;;;;;;6.82;60.75;100513.61;1725307;82;21321;-63
2021/03/25 10:53:52;;;;;;;13.80;9.50;;;;;;;6.84;60.28;100508.81;1725668;83;21755;-64
2021/03/25 10:56:37;;;;;;;10.15;8.08;;;;;;;7.05;59.12;100511.55;1725735;83;21173;-65
2021/03/25 11:01:52;;;;;;;9.23;6.60;;;;;;;6.93;59.42;100517.58;1853068;77;22115;-63
2021/03/25 11:04:31;;;;;;;10.53;6.90;;;;;;;6.83;59.37;100518.87;1807883;78;21190;-65
2021/03/25 11:07:16;;;;;;;9.20;6.22;;;;;;;6.85;58.94;100521.48;1739324;82;21136;-64
2021/03/25 11:09:57;;;;;;;15.72;11.80;;;;;;;6.75;59.34;100526.21;1739235;82;21156;-64
2021/03/25 11:12:32;;;;;;;17.55;11.65;;;;;;;6.83;59.61;100519.28;1838918;77;20141;-63
2021/03/25 11:15:04;;;;;;;15.75;12.28;;;;;;;6.84;59.86;100524.96;1790291;80;21228;-62
2021/03/25 11:17:36;;;;;;;10.90;7.87;;;;;;;6.88;59.71;100522.80;1778982;80;21170;-64
2021/03/25 11:20:10;;;;;;;9.15;7.22;;;;;;;6.92;59.48;100530.22;1712916;83;21151;-65
2021/03/25 11:22:38;;;;;;;14.35;9.73;;;;;;;6.93;59.57;100530.67;1718467;82;21570;-65
2021/03/25 11:25:13;;;;;;;16.50;11.55;;;;;;;6.97;59.69;100526.78;1712030;82;21774;-65
2021/03/25 11:27:44;;;;;;;20.90;15.32;;;;;;;7.00;59.61;100532.45;1737017;82;21193;-65
2021/03/25 11:30:30;;;;;;;25.97;15.98;;;;;;;7.01;59.24;100541.20;1736528;82;21170;-65
2021/03/25 11:33:00;;;;;;;13.38;8.70;;;;;;;6.95;59.37;100540.30;1725134;82;21315;-67
2021/03/25 11:35:37;;;;;;;12.40;9.03;;;;;;;6.95;59.78;100549.88;1716028;82;21340;-69
2021/03/25 11:38:29;;;;;;;10.80;8.45;;;;;;;6.98;59.52;100540.31;1710857;82;21150;-68
2021/03/25 11:41:02;;;;;;;8.33;6.12;;;;;;;7.01;59.54;100552.97;1723361;82;21130;-68
2021/03/25 11:43:56;;;;;;;7.22;5.47;;;;;;;6.90;59.38;100545.93;1715459;82;21150;-66
2021/03/25 11:46:33;;;;;;;7.58;5.50;;;;;;;6.97;59.51;100549.45;1758534;81;21350;-63
2021/03/25 11:49:26;;;;;;;10.78;8.38;;;;;;;7.00;59.72;100546.84;1740484;82;21111;-64
2021/03/25 11:52:01;;;;;;;36.95;18.87;;;;;;;7.10;59.40;100547.76;1735890;83;21170;-64
2021/03/25 11:54:37;;;;;;;19.75;13.25;;;;;;;7.04;59.07;100548.62;1716392;83;21143;-65
2021/03/25 11:57:31;;;;;;;22.98;17.12;;;;;;;6.95;58.97;100545.53;1699167;84;21210;-64
2021/03/25 12:00:13;;;;;;;18.02;14.58;;;;;;;6.89;59.21;100557.27;1743711;81;21170;-63
2021/03/25 12:02:43;;;;;;;11.05;7.90;;;;;;;6.78;59.30;100554.59;1757212;81;21288;-63
2021/03/25 12:05:31;;;;;;;10.65;7.60;;;;;;;6.82;59.30;100548.52;1758760;81;21191;-64
2021/03/25 12:08:08;;;;;;;8.68;6.47;;;;;;;6.77;59.37;100557.19;1756999;81;21562;-63
2021/03/25 12:10:37;;;;;;;15.32;9.58;;;;;;;6.69;59.65;100552.77;1753289;81;21239;-65
2021/03/25 12:13:05;;;;;;;13.93;9.35;;;;;;;6.73;59.77;100556.30;1754437;80;21153;-64
2021/03/25 12:15:36;;;;;;;11.73;8.58;;;;;;;6.76;59.92;100558.94;1784544;80;21155;-64
2021/03/25 12:18:19;;;;;;;22.80;18.20;;;;;;;6.81;59.64;100560.27;1780789;80;21178;-64
2021/03/25 12:20:47;;;;;;;11.35;8.30;;;;;;;6.80;59.76;100562.02;1746098;80;21107;-63
2021/03/25 12:23:22;;;;;;;9.30;5.78;;;;;;;6.84;59.40;100565.52;1784531;80;21162;-63
2021/03/25 12:25:53;;;;;;;12.98;8.95;;;;;;;6.88;59.25;100560.75;1784354;80;21172;-63
2021/03/25 12:28:21;;;;;;;14.30;9.90;;;;;;;6.90;59.30;100562.05;1760153;80;21142;-63
2021/03/25 12:30:50;;;;;;;14.90;9.60;;;;;;;6.93;59.13;100569.92;1778761;81;21548;-63
2021/03/25 12:33:29;;;;;;;13.15;8.95;;;;;;;6.89;59.34;100570.77;1778599;81;21131;-63
2021/03/25 12:35:59;;;;;;;17.95;10.72;;;;;;;6.99;58.83;100568.65;1778944;80;21163;-63
2021/03/25 12:38:28;;;;;;;19.17;12.25;;;;;;;6.90;59.15;100569.48;1759434;80;21142;-63
2021/03/25 12:40:56;;;;;;;18.73;11.78;;;;;;;6.89;59.26;100574.69;1748062;82;21164;-63